Time;durP1;ratioP1;P1;durP2;ratioP2;P2;SDS_P1;SDS_P2;PMS_P1;PMS_P2;Temp;Humidity;BMP_temperature;BMP_pressure;BME280_temperature;BME280_humidity;BME280_pressure;Samples;Min_cycle;Max_cycle;Signal;HPM_P1;HPM_P2
2022/08/22 00:00:23;;;;;;;8.88;3.78;;;17.70;99.90;;;;;;5103221;28;20024;-83
2022/08/22 00:03:15;;;;;;;4.93;3.70;;;17.60;99.90;;;;;;5110536;28;20031;-82
2022/08/22 00:05:43;;;;;;;5.53;3.58;;;17.60;99.90;;;;;;5109264;28;20458;-82
2022/08/22 00:08:29;;;;;;;7.85;2.92;;;17.60;99.90;;;;;;5102466;28;20046;-82
2022/08/22 00:11:24;;;;;;;4.35;3.25;;;17.50;99.90;;;;;;5103588;28;20113;-81
2022/08/22 00:14:07;;;;;;;5.55;3.10;;;17.50;99.90;;;;;;5107142;28;20080;-81
2022/08/22 00:16:51;;;;;;;7.25;3.35;;;17.50;99.90;;;;;;5109818;28;20061;-81
2022/08/22 00:19:46;;;;;;;6.30;3.30;;;17.50;99.90;;;;;;5106871;28;20503;-81
2022/08/22 00:22:31;;;;;;;4.43;3.20;;;17.40;99.90;;;;;;5101160;27;20032;-81
2022/08/22 00:25:24;;;;;;;5.25;3.10;;;17.40;99.90;;;;;;5106390;28;20401;-81
2022/08/22 00:27:57;;;;;;;6.38;3.47;;;17.30;99.90;;;;;;5110212;28;20277;-81
2022/08/22 00:30:23;;;;;;;5.25;3.13;;;17.30;99.90;;;;;;5104431;28;20076;-82
2022/08/22 00:32:55;;;;;;;4.90;3.28;;;17.30;99.90;;;;;;5107339;28;20038;-82
2022/08/22 00:35:39;;;;;;;4.87;3.40;;;17.30;99.90;;;;;;5112094;28;20035;-81
2022/08/22 00:38:11;;;;;;;4.57;3.53;;;17.30;99.90;;;;;;5112201;28;20058;-82
2022/08/22 00:40:54;;;;;;;;;;;17.30;99.90;;;;;;5108232;28;20035;-82
2022/08/22 00:43:48;;;;;;;7.60;3.50;;;17.30;99.90;;;;;;5108389;28;19912;-82
2022/08/22 00:46:44;;;;;;;5.72;4.15;;;17.20;99.90;;;;;;5099608;28;20095;-81
2022/08/22 00:49:22;;;;;;;7.13;4.00;;;17.20;99.90;;;;;;5111937;28;20038;-82
2022/08/22 00:52:24;;;;;;;5.00;3.53;;;17.20;99.90;;;;;;5104081;28;20032;-83
2022/08/22 00:55:10;;;;;;;5.68;3.80;;;17.20;99.90;;;;;;5109970;27;20046;-81
2022/08/22 00:57:35;;;;;;;5.20;3.60;;;17.20;99.90;;;;;;5102391;28;20110;-82
2022/08/22 01:00:27;;;;;;;5.50;3.85;;;17.10;99.90;;;;;;5109042;28;20150;-81
2022/08/22 01:03:31;;;;;;;6.63;4.10;;;17.20;99.90;;;;;;5101438;28;20373;-82
2022/08/22 01:06:18;;;;;;;9.10;4.10;;;17.10;99.90;;;;;;5106874;28;20024;-82
2022/08/22 01:09:00;;;;;;;6.22;4.13;;;17.10;99.90;;;;;;5108841;28;20061;-82
2022/08/22 01:11:38;;;;;;;4.97;3.30;;;17.10;99.90;;;;;;5103635;28;20045;-81
2022/08/22 01:14:37;;;;;;;9.35;3.50;;;17.10;99.90;;;;;;5105973;28;20027;-82
2022/08/22 01:17:15;;;;;;;4.63;3.35;;;17.10;99.90;;;;;;5110388;28;20041;-82
2022/08/22 01:20:15;;;;;;;5.65;3.00;;;17.00;99.90;;;;;;5107628;28;20035;-82
2022/08/22 01:23:18;;;;;;;6.28;4.25;;;17.00;99.90;;;;;;5109307;28;20122;-82
2022/08/22 01:26:25;;;;;;;5.65;3.83;;;17.00;99.90;;;;;;5099048;28;20106;-83
2022/08/22 01:29:33;;;;;;;7.80;3.72;;;17.00;99.90;;;;;;5103919;28;20031;-83
2022/08/22 01:32:21;;;;;;;4.72;3.60;;;16.90;99.90;;;;;;5099675;28;20687;-82
2022/08/22 01:35:19;;;;;;;10.48;3.97;;;16.90;99.90;;;;;;5109500;28;20057;-82
2022/08/22 01:38:11;;;;;;;3.97;3.22;;;16.90;99.90;;;;;;5100648;28;20043;-82
2022/08/22 01:41:11;;;;;;;6.63;3.75;;;16.90;99.90;;;;;;5109026;28;20028;-82
2022/08/22 01:43:52;;;;;;;6.97;3.50;;;16.90;99.90;;;;;;5103378;28;20043;-82
2022/08/22 01:46:21;;;;;;;4.70;3.53;;;16.80;99.90;;;;;;5111112;28;20028;-80
2022/08/22 01:49:14;;;;;;;6.30;4.28;;;16.80;99.90;;;;;;5120823;28;20051;-80
2022/08/22 01:51:52;;;;;;;4.65;3.60;;;16.80;99.90;;;;;;5105187;28;20042;-80
2022/08/22 01:54:34;;;;;;;7.05;3.88;;;16.80;99.90;;;;;;5114633;28;20032;-82
2022/08/22 01:57:04;;;;;;;4.80;3.50;;;16.80;99.90;;;;;;5103749;28;20049;-82
2022/08/22 01:59:40;;;;;;;6.50;3.42;;;16.80;99.90;;;;;;5095652;28;20110;-82
2022/08/22 02:02:22;;;;;;;5.47;4.00;;;16.80;99.90;;;;;;5110460;28;20046;-81
2022/08/22 02:05:03;;;;;;;;;;;16.80;99.90;;;;;;5110314;28;20470;-81
2022/08/22 02:07:45;;;;;;;6.85;3.80;;;16.90;99.90;;;;;;5108369;28;19942;-81
2022/08/22 02:10:22;;;;;;;9.35;4.68;;;16.80;99.90;;;;;;5092925;28;20081;-82
2022/08/22 02:13:18;;;;;;;5.93;4.07;;;16.80;99.90;;;;;;5100440;28;20528;-82
2022/08/22 02:15:52;;;;;;;5.28;4.32;;;16.90;99.90;;;;;;5098089;28;20024;-82
2022/08/22 02:18:29;;;;;;;6.03;4.22;;;16.80;99.90;;;;;;5107231;28;20095;-82
2022/08/22 02:21:15;;;;;;;5.93;3.72;;;16.80;99.90;;;;;;5106530;28;20076;-82
2022/08/22 02:23:53;;;;;;;8.98;4.60;;;16.80;99.90;;;;;;5111966;28;20043;-82
2022/08/22 02:26:21;;;;;;;5.50;4.20;;;16.80;99.90;;;;;;5108224;28;20389;-82
2022/08/22 02:29:03;;;;;;;9.48;4.28;;;16.80;99.90;;;;;;5108973;28;20108;-82
2022/08/22 02:31:37;;;;;;;7.80;3.95;;;16.80;99.90;;;;;;5115802;28;20040;-82
2022/08/22 02:34:28;;;;;;;6.78;4.63;;;16.80;99.90;;;;;;5106908;28;20052;-82
2022/08/22 02:37:20;;;;;;;5.25;4.32;;;16.80;99.90;;;;;;5109353;28;20027;-83
2022/08/22 02:40:23;;;;;;;5.28;3.78;;;16.80;99.90;;;;;;5117163;28;20032;-83
2022/08/22 02:42:58;;;;;;;9.23;4.63;;;16.90;99.90;;;;;;5113234;28;20027;-82
2022/08/22 02:45:26;;;;;;;6.45;4.30;;;16.90;99.90;;;;;;5109393;28;20509;-83
2022/08/22 02:47:58;;;;;;;6.00;4.70;;;16.80;99.90;;;;;;5101062;28;20085;-82
2022/08/22 02:50:36;;;;;;;7.63;4.60;;;16.80;99.90;;;;;;5110859;28;20032;-82
2022/08/22 02:53:19;;;;;;;6.10;4.43;;;16.80;99.90;;;;;;5111261;28;20111;-82
2022/08/22 02:55:52;;;;;;;6.22;4.25;;;16.80;99.90;;;;;;5116451;27;20032;-82
2022/08/22 02:58:33;;;;;;;7.10;3.88;;;16.70;99.90;;;;;;5122240;28;20704;-82
2022/08/22 03:01:01;;;;;;;6.72;4.07;;;16.70;99.90;;;;;;5113726;27;20067;-83
2022/08/22 03:03:34;;;;;;;7.78;5.13;;;16.70;99.90;;;;;;5102873;28;20189;-83
2022/08/22 03:06:04;;;;;;;5.53;4.10;;;16.60;99.90;;;;;;5116014;28;20381;-82
2022/08/22 03:08:38;;;;;;;5.35;4.50;;;16.60;99.90;;;;;;5116214;28;20135;-82
2022/08/22 03:11:25;;;;;;;6.95;4.25;;;16.60;99.90;;;;;;5113495;28;20040;-82
2022/08/22 03:14:17;;;;;;;6.93;4.50;;;16.50;99.90;;;;;;5123908;27;20127;-83
2022/08/22 03:17:03;;;;;;;5.27;3.97;;;16.50;99.90;;;;;;5108381;28;20047;-83
2022/08/22 03:19:51;;;;;;;4.63;3.90;;;16.40;99.90;;;;;;5110440;28;20273;-82
2022/08/22 03:22:51;;;;;;;6.43;4.07;;;16.40;99.90;;;;;;5112262;28;20061;-83
2022/08/22 03:25:28;;;;;;;5.43;4.18;;;16.30;99.90;;;;;;5057991;28;20056;-83
2022/08/22 03:27:59;;;;;;;9.32;4.50;;;16.30;99.90;;;;;;5113239;28;20378;-83
2022/08/22 03:30:40;;;;;;;7.10;4.13;;;16.30;99.90;;;;;;5105795;27;20807;-83
2022/08/22 03:33:22;;;;;;;8.38;4.20;;;16.30;99.90;;;;;;5111014;28;20062;-82
2022/08/22 03:35:48;;;;;;;6.32;4.80;;;16.20;99.90;;;;;;5106589;28;20092;-83
2022/08/22 03:38:32;;;;;;;8.70;4.47;;;16.20;99.90;;;;;;5112676;28;20489;-83
2022/08/22 03:41:08;;;;;;;6.18;4.22;;;16.20;99.90;;;;;;5113596;28;20048;-82
2022/08/22 03:44:02;;;;;;;10.27;4.78;;;16.20;99.90;;;;;;5112214;28;20035;-82
2022/08/22 03:46:56;;;;;;;7.38;4.97;;;16.10;99.90;;;;;;5111034;27;20039;-83
2022/08/22 03:49:43;;;;;;;6.18;4.38;;;16.10;99.90;;;;;;5102643;28;20034;-83
2022/08/22 03:52:27;;;;;;;8.23;4.85;;;16.10;99.90;;;;;;5111109;28;20039;-84
2022/08/22 03:55:29;;;;;;;8.93;5.15;;;16.10;99.90;;;;;;5108221;28;20110;-82
2022/08/22 03:58:29;;;;;;;8.65;5.38;;;16.10;99.90;;;;;;5107463;28;20035;-81
2022/08/22 04:01:33;;;;;;;4.63;4.15;;;16.10;99.90;;;;;;5110708;28;20047;-82
2022/08/22 04:04:27;;;;;;;6.35;4.88;;;16.00;99.90;;;;;;5111612;27;20031;-82
2022/08/22 04:06:59;;;;;;;7.97;4.57;;;16.00;99.90;;;;;;5111834;28;20051;-82
2022/08/22 04:10:13;;;;;;;13.07;4.13;;;16.00;99.90;;;;;;5104000;28;20473;-83
2022/08/22 04:12:54;;;;;;;7.30;4.35;;;16.00;99.90;;;;;;5102598;28;20039;-82
2022/08/22 04:15:23;;;;;;;4.50;3.83;;;16.00;99.90;;;;;;5108940;28;20019;-82
2022/08/22 04:18:04;;;;;;;9.15;4.80;;;16.00;99.90;;;;;;5106050;28;20043;-82
2022/08/22 04:20:58;;;;;;;7.82;4.20;;;16.00;99.90;;;;;;5113096;27;20392;-82
2022/08/22 04:23:50;;;;;;;6.55;4.80;;;16.00;99.90;;;;;;5120091;27;20089;-82
2022/08/22 04:26:24;;;;;;;8.60;5.60;;;16.00;99.90;;;;;;5111601;28;20486;-81
2022/08/22 04:28:57;;;;;;;6.95;4.70;;;16.00;99.90;;;;;;5109345;28;20024;-82
2022/08/22 04:31:35;;;;;;;9.38;4.57;;;16.00;99.90;;;;;;5107607;28;20040;-82
2022/08/22 04:34:30;;;;;;;6.85;5.00;;;16.00;99.90;;;;;;5110854;28;20032;-82
2022/08/22 04:37:03;;;;;;;10.13;4.72;;;16.00;99.90;;;;;;5094580;28;20089;-81
2022/08/22 04:39:35;;;;;;;8.70;5.25;;;16.00;99.90;;;;;;5111090;27;20055;-82
2022/08/22 04:42:24;;;;;;;13.13;5.55;;;16.00;99.90;;;;;;5108577;28;20035;-82
2022/08/22 04:45:05;;;;;;;9.07;5.00;;;16.00;99.90;;;;;;5099706;28;20494;-82
2022/08/22 04:47:51;;;;;;;10.95;5.63;;;16.00;99.90;;;;;;5109833;28;20035;-82
2022/08/22 04:50:48;;;;;;;8.98;5.35;;;15.90;99.90;;;;;;5109018;28;20023;-82
2022/08/22 04:53:39;;;;;;;13.02;5.72;;;16.00;99.90;;;;;;5105259;28;20444;-83
2022/08/22 04:56:24;;;;;;;13.30;5.80;;;16.00;99.90;;;;;;5119231;27;20127;-83
2022/08/22 04:59:15;;;;;;;13.90;6.45;;;16.00;99.90;;;;;;5098585;28;20477;-82
2022/08/22 05:02:05;;;;;;;13.40;5.95;;;16.00;99.90;;;;;;5104035;28;20036;-82
2022/08/22 05:04:46;;;;;;;11.68;6.47;;;16.00;99.90;;;;;;5102971;28;20036;-82
2022/08/22 05:07:21;;;;;;;11.75;5.30;;;16.00;99.90;;;;;;5092919;28;20023;-82
2022/08/22 05:10:00;;;;;;;10.65;5.97;;;16.00;99.90;;;;;;5104479;28;20103;-82
2022/08/22 05:12:35;;;;;;;9.45;5.78;;;16.10;99.90;;;;;;5136112;27;20031;-82
2022/08/22 05:15:12;;;;;;;13.13;6.75;;;16.10;99.90;;;;;;5108311;28;20515;-82
2022/08/22 05:17:40;;;;;;;10.57;6.43;;;16.10;99.90;;;;;;5104697;28;20470;-82
2022/08/22 05:20:10;;;;;;;15.90;6.18;;;16.20;99.90;;;;;;5111452;27;20038;-82
2022/08/22 05:22:41;;;;;;;15.45;6.50;;;16.20;99.90;;;;;;5108147;28;20393;-82
2022/08/22 05:25:10;;;;;;;16.27;6.55;;;16.20;99.90;;;;;;5108850;28;20046;-82
2022/08/22 05:27:44;;;;;;;18.00;7.15;;;16.30;99.90;;;;;;5107892;28;20023;-82
2022/08/22 05:30:15;;;;;;;17.88;6.88;;;16.40;99.90;;;;;;5110323;27;20067;-81
2022/08/22 05:32:50;;;;;;;16.85;6.95;;;16.50;99.90;;;;;;5125279;27;20099;-81
2022/08/22 05:35:18;;;;;;;18.45;7.40;;;16.50;99.90;;;;;;5108527;28;20031;-82
2022/08/22 05:37:53;;;;;;;14.63;7.53;;;16.50;99.90;;;;;;5107057;28;20028;-82
2022/08/22 05:40:26;;;;;;;15.70;6.72;;;16.60;99.90;;;;;;5109569;28;20110;-82
2022/08/22 05:42:55;;;;;;;17.73;6.65;;;16.60;99.90;;;;;;5099649;28;20024;-82
2022/08/22 05:45:22;;;;;;;15.15;6.72;;;16.70;99.90;;;;;;5111386;28;20123;-82
2022/08/22 05:48:04;;;;;;;12.93;5.97;;;16.80;99.90;;;;;;5114095;27;20031;-81
2022/08/22 05:50:39;;;;;;;14.90;7.17;;;16.80;99.90;;;;;;5104240;28;20024;-82
2022/08/22 05:53:37;;;;;;;12.43;5.95;;;16.90;99.90;;;;;;5098919;28;20286;-81
2022/08/22 05:56:25;;;;;;;12.13;5.63;;;17.00;99.90;;;;;;5095056;28;20032;-83
2022/08/22 05:58:58;;;;;;;11.15;6.47;;;17.10;99.90;;;;;;5099385;28;20034;-81
2022/08/22 06:01:47;;;;;;;13.70;6.03;;;17.10;99.90;;;;;;5108330;28;20046;-82
2022/08/22 06:04:39;;;;;;;19.52;6.50;;;17.20;99.90;;;;;;5109929;28;20043;-83
2022/08/22 06:07:15;;;;;;;8.38;4.82;;;17.30;99.90;;;;;;5109804;28;20045;-82
2022/08/22 06:09:47;;;;;;;11.20;5.53;;;17.40;99.90;;;;;;5107672;28;20500;-82
2022/08/22 06:12:18;;;;;;;10.73;6.30;;;17.50;99.90;;;;;;5103914;28;20032;-82
2022/08/22 06:15:03;;;;;;;12.18;6.00;;;17.60;99.90;;;;;;5104052;28;20027;-83
2022/08/22 06:17:41;;;;;;;10.27;5.78;;;17.70;99.90;;;;;;5110618;28;20030;-83
2022/08/22 06:20:10;;;;;;;9.77;4.97;;;17.80;99.90;;;;;;5110835;28;20016;-84
2022/08/22 06:22:42;;;;;;;7.05;4.55;;;17.90;99.90;;;;;;5116692;28;20035;-84
2022/08/22 06:25:13;;;;;;;10.63;5.18;;;18.00;99.90;;;;;;5115975;28;20121;-83
2022/08/22 06:27:40;;;;;;;9.27;5.47;;;18.00;99.90;;;;;;5113828;28;20391;-83
2022/08/22 06:30:07;;;;;;;10.68;4.50;;;18.10;99.90;;;;;;5109107;27;20070;-83
2022/08/22 06:32:38;;;;;;;9.55;5.30;;;18.20;99.90;;;;;;5107183;28;20042;-83
2022/08/22 06:35:09;;;;;;;7.43;4.38;;;18.30;99.90;;;;;;5126631;27;20100;-82
2022/08/22 06:37:39;;;;;;;10.90;5.35;;;18.30;99.90;;;;;;5112112;28;20032;-83
2022/08/22 06:40:09;;;;;;;9.90;4.90;;;18.40;99.90;;;;;;5113940;28;20392;-81
2022/08/22 06:42:49;;;;;;;9.75;4.90;;;18.40;99.90;;;;;;5110214;28;20035;-80
2022/08/22 06:45:27;;;;;;;6.65;4.60;;;18.50;99.90;;;;;;5111041;28;20531;-81
2022/08/22 06:48:05;;;;;;;10.00;4.55;;;18.60;99.90;;;;;;5109365;27;20042;-82
2022/08/22 06:50:35;;;;;;;8.00;4.93;;;18.70;99.90;;;;;;5111604;28;20036;-80
2022/08/22 06:53:18;;;;;;;10.45;5.85;;;18.80;99.90;;;;;;5111838;28;20020;-80
2022/08/22 06:55:56;;;;;;;8.43;5.75;;;18.80;99.90;;;;;;5107894;28;20031;-80
2022/08/22 06:58:44;;;;;;;10.55;5.70;;;18.90;99.90;;;;;;5119819;28;20085;-81
2022/08/22 07:01:18;;;;;;;11.98;5.45;;;19.00;99.90;;;;;;5123788;28;20039;-80
2022/08/22 07:03:51;;;;;;;9.55;5.40;;;19.10;99.90;;;;;;5106716;28;20028;-81
2022/08/22 07:06:27;;;;;;;10.45;5.70;;;19.10;99.90;;;;;;5118990;28;20024;-82
2022/08/22 07:08:54;;;;;;;10.73;5.32;;;19.20;99.90;;;;;;5115008;28;20408;-82
2022/08/22 07:11:35;;;;;;;8.88;5.22;;;19.30;99.90;;;;;;5102667;28;20097;-82
2022/08/22 07:14:04;;;;;;;10.02;5.05;;;19.30;99.90;;;;;;5111648;28;20270;-80
2022/08/22 07:16:34;;;;;;;8.13;5.13;;;19.40;99.90;;;;;;5110909;28;20024;-81
2022/08/22 07:19:00;;;;;;;12.38;5.57;;;19.50;99.90;;;;;;5109280;27;20019;-81
2022/08/22 07:21:41;;;;;;;17.33;5.32;;;19.70;99.90;;;;;;5110760;28;20024;-81
2022/08/22 07:24:08;;;;;;;10.27;5.70;;;19.70;99.90;;;;;;5097741;28;20055;-81
2022/08/22 07:27:11;;;;;;;9.18;5.65;;;19.80;99.90;;;;;;5109493;28;20321;-82
2022/08/22 07:30:00;;;;;;;7.63;4.43;;;19.90;99.90;;;;;;5093387;28;20043;-82
2022/08/22 07:32:40;;;;;;;7.95;4.72;;;20.00;99.90;;;;;;5111985;28;20040;-82
2022/08/22 07:35:17;;;;;;;8.10;3.63;;;20.10;99.90;;;;;;5103494;28;20024;-84
2022/08/22 07:37:46;;;;;;;10.75;4.95;;;20.20;99.90;;;;;;5109457;28;20032;-82
2022/08/22 07:40:22;;;;;;;10.15;5.50;;;20.30;99.90;;;;;;5110011;28;20102;-81
2022/08/22 07:43:15;;;;;;;12.43;5.45;;;20.30;99.90;;;;;;5102957;28;20054;-81
2022/08/22 07:46:19;;;;;;;7.05;4.72;;;20.30;99.90;;;;;;5106694;28;20031;-81
2022/08/22 07:48:52;;;;;;;9.55;4.15;;;20.40;99.90;;;;;;5108281;28;20119;-80
2022/08/22 07:51:34;;;;;;;10.20;4.53;;;20.50;99.90;;;;;;5100739;28;20383;-81
2022/08/22 07:54:07;;;;;;;7.22;4.70;;;20.60;99.80;;;;;;5106322;28;20028;-81
2022/08/22 07:56:41;;;;;;;12.02;4.60;;;20.50;99.80;;;;;;5110974;28;20077;-81
2022/08/22 07:59:11;;;;;;;7.45;4.18;;;20.60;99.90;;;;;;5107725;28;20038;-81
2022/08/22 08:01:39;;;;;;;7.90;3.28;;;20.80;99.50;;;;;;5110788;27;20115;-81
2022/08/22 08:04:13;;;;;;;7.60;3.50;;;20.90;98.70;;;;;;5106537;28;20358;-81
2022/08/22 08:06:39;;;;;;;11.00;3.85;;;21.10;98.00;;;;;;5110182;28;20097;-81
2022/08/22 08:09:08;;;;;;;6.40;3.47;;;21.20;97.20;;;;;;5107925;27;20114;-81
2022/08/22 08:11:39;;;;;;;7.72;3.63;;;21.40;97.00;;;;;;5113304;27;21387;-81
2022/08/22 08:14:07;;;;;;;9.75;3.53;;;21.30;96.70;;;;;;5110012;28;20032;-81
2022/08/22 08:17:00;;;;;;;17.27;3.85;;;21.40;97.00;;;;;;5108479;28;20015;-81
2022/08/22 08:19:26;;;;;;;;;;;21.60;96.50;;;;;;5102673;28;20024;-81
2022/08/22 08:21:54;;;;;;;6.95;3.08;;;21.70;96.30;;;;;;5110610;28;19915;-81
2022/08/22 08:24:25;;;;;;;5.30;2.70;;;21.70;96.30;;;;;;5106298;28;20745;-81
2022/08/22 08:29:47;;;;;;;5.45;2.70;;;21.90;96.70;;;;;;5104556;28;20056;-81
2022/08/22 08:32:13;;;;;;;6.28;2.38;;;22.10;95.90;;;;;;5103932;27;20315;-84
2022/08/22 08:34:42;;;;;;;5.30;2.65;;;22.10;95.30;;;;;;5102281;28;20062;-81
2022/08/22 08:37:19;;;;;;;2.78;2.20;;;22.20;95.30;;;;;;5104443;28;20871;-83
2022/08/22 08:39:50;;;;;;;6.57;2.40;;;22.30;94.90;;;;;;5107374;28;20389;-82
2022/08/22 08:45:40;;;;;;;5.32;2.10;;;22.50;95.00;;;;;;5109395;28;20119;-83
2022/08/22 08:48:24;;;;;;;5.38;2.00;;;22.70;93.50;;;;;;5111579;28;20031;-82
2022/08/22 08:51:24;;;;;;;4.50;2.03;;;22.80;93.70;;;;;;5094078;28;20105;-83
2022/08/22 08:54:19;;;;;;;7.22;1.95;;;22.90;94.30;;;;;;5094962;27;20046;-82
2022/08/22 08:56:58;;;;;;;7.20;1.52;;;23.20;92.60;;;;;;5100031;28;20518;-82
2022/08/22 08:59:49;;;;;;;3.58;1.58;;;23.10;91.80;;;;;;5101437;28;20113;-84
2022/08/22 09:02:47;;;;;;;4.28;1.83;;;23.10;92.30;;;;;;5109485;28;20034;-80
2022/08/22 09:05:50;;;;;;;5.78;1.85;;;23.20;91.70;;;;;;5110617;28;20076;-82
2022/08/22 09:08:42;;;;;;;10.27;2.05;;;23.30;93.40;;;;;;5109058;28;20027;-82
2022/08/22 09:11:25;;;;;;;6.95;2.03;;;23.40;91.60;;;;;;5094701;28;20046;-81
2022/08/22 09:14:30;;;;;;;3.42;1.45;;;23.40;91.30;;;;;;5109972;28;20608;-80
2022/08/22 09:17:33;;;;;;;4.05;1.15;;;23.30;91.10;;;;;;5077761;28;20151;-80
2022/08/22 09:20:33;;;;;;;2.72;0.77;;;23.20;89.70;;;;;;5101744;28;20035;-81
2022/08/22 09:23:36;;;;;;;9.95;0.90;;;23.30;90.40;;;;;;5089024;28;20058;-81
2022/08/22 09:26:16;;;;;;;2.35;0.77;;;23.60;90.30;;;;;;5106504;28;20075;-80
2022/08/22 09:28:58;;;;;;;2.47;0.85;;;23.60;87.40;;;;;;5091089;28;20098;-80
2022/08/22 09:31:33;;;;;;;1.92;0.98;;;23.70;89.30;;;;;;5103824;27;20028;-81
2022/08/22 09:34:16;;;;;;;3.10;0.70;;;23.80;87.90;;;;;;5104625;28;20031;-80
2022/08/22 09:37:00;;;;;;;4.53;0.93;;;23.90;84.20;;;;;;5101790;28;20054;-81
2022/08/22 09:39:40;;;;;;;5.03;1.35;;;24.00;84.00;;;;;;5109685;28;20039;-81
2022/08/22 09:42:29;;;;;;;2.65;0.90;;;24.20;87.00;;;;;;5100007;28;20026;-81
2022/08/22 09:45:10;;;;;;;3.67;1.10;;;24.50;87.40;;;;;;5104124;28;20459;-81
2022/08/22 09:47:50;;;;;;;11.50;2.42;;;24.80;83.40;;;;;;5095897;28;20385;-80
2022/08/22 09:50:29;;;;;;;8.20;0.82;;;24.90;81.30;;;;;;5105192;28;20547;-81
2022/08/22 09:53:06;;;;;;;4.40;0.93;;;25.10;83.50;;;;;;5120921;27;20032;-80
2022/08/22 09:55:41;;;;;;;3.25;0.70;;;25.20;85.50;;;;;;5112736;28;20023;-81
2022/08/22 09:58:51;;;;;;;2.58;0.77;;;25.20;81.10;;;;;;5094215;28;20052;-81
2022/08/22 10:01:17;;;;;;;4.32;1.05;;;25.00;82.50;;;;;;5083337;28;20039;-81
2022/08/22 10:03:45;;;;;;;10.57;1.33;;;25.00;81.80;;;;;;5108202;28;20032;-81
2022/08/22 10:06:19;;;;;;;3.05;0.80;;;25.10;82.10;;;;;;5100185;28;20114;-80
2022/08/22 10:09:03;;;;;;;2.55;0.85;;;25.30;79.70;;;;;;5096379;28;20099;-81
2022/08/22 10:11:33;;;;;;;1.65;0.60;;;25.20;79.70;;;;;;5111307;28;20035;-81
2022/08/22 10:14:15;;;;;;;3.08;1.00;;;25.10;82.40;;;;;;5108305;28;20078;-81
2022/08/22 10:17:00;;;;;;;1.77;0.60;;;25.20;79.90;;;;;;5099476;28;20081;-81
2022/08/22 10:19:38;;;;;;;3.85;0.73;;;25.20;80.40;;;;;;5100610;28;20034;-81
2022/08/22 10:22:31;;;;;;;3.35;0.82;;;25.30;79.50;;;;;;5102877;28;20157;-82
2022/08/22 10:25:12;;;;;;;2.03;0.60;;;25.30;81.00;;;;;;5100853;28;20038;-81
2022/08/22 10:27:52;;;;;;;10.10;3.40;;;25.20;81.40;;;;;;5106479;28;20028;-81
2022/08/22 10:30:49;;;;;;;5.85;0.90;;;25.30;81.10;;;;;;5111103;28;20666;-83
2022/08/22 10:33:31;;;;;;;3.13;1.30;;;25.20;79.50;;;;;;5105553;28;20064;-81
2022/08/22 10:36:09;;;;;;;7.38;2.80;;;25.50;83.10;;;;;;5105015;28;20046;-84
2022/08/22 10:38:43;;;;;;;34.88;12.48;;;25.70;82.50;;;;;;5107818;28;20061;-82
2022/08/22 10:41:35;;;;;;;55.25;17.77;;;25.80;81.50;;;;;;5093642;28;20024;-82
2022/08/22 10:44:18;;;;;;;3.10;1.00;;;26.00;81.80;;;;;;5089030;28;20845;-83
2022/08/22 10:46:46;;;;;;;2.10;0.63;;;26.00;78.00;;;;;;5098064;28;20055;-81
2022/08/22 10:49:22;;;;;;;3.58;1.10;;;26.00;77.90;;;;;;5101571;28;20035;-84
2022/08/22 10:51:57;;;;;;;6.63;1.67;;;26.10;80.60;;;;;;5104799;28;20157;-83
2022/08/22 10:55:01;;;;;;;2.13;0.57;;;26.30;77.80;;;;;;5104727;28;20031;-82
2022/08/22 10:57:52;;;;;;;3.88;1.02;;;26.50;77.70;;;;;;5100552;28;20103;-82
2022/08/22 11:00:41;;;;;;;4.53;1.52;;;26.60;76.30;;;;;;5101138;28;20107;-82
2022/08/22 11:03:28;;;;;;;1.95;0.80;;;26.60;77.10;;;;;;5094516;28;20028;-82
2022/08/22 11:05:59;;;;;;;5.22;1.25;;;26.70;76.20;;;;;;5100286;28;20043;-81
2022/08/22 11:08:44;;;;;;;2.80;0.70;;;26.60;76.70;;;;;;5109737;28;20031;-81
2022/08/22 11:11:42;;;;;;;7.32;0.90;;;26.60;76.00;;;;;;5104951;28;20063;-81
2022/08/22 11:14:35;;;;;;;6.68;0.98;;;26.70;74.80;;;;;;5112158;27;20039;-81
2022/08/22 11:17:26;;;;;;;4.65;1.20;;;26.80;80.40;;;;;;5097320;28;20115;-81
2022/08/22 11:20:30;;;;;;;4.90;1.00;;;26.90;75.40;;;;;;5102538;27;20028;-82
2022/08/22 11:23:31;;;;;;;2.20;0.90;;;26.90;75.90;;;;;;5071812;27;20047;-82
2022/08/22 11:26:22;;;;;;;4.25;1.00;;;26.80;76.40;;;;;;5108210;27;20478;-81
2022/08/22 11:29:22;;;;;;;2.87;0.80;;;26.70;76.60;;;;;;5105260;28;20034;-81
2022/08/22 11:31:56;;;;;;;2.00;0.82;;;26.60;76.30;;;;;;5094507;27;20047;-81
2022/08/22 11:34:35;;;;;;;3.30;1.00;;;26.60;78.90;;;;;;5103505;27;20053;-81
2022/08/22 11:37:09;;;;;;;3.88;0.90;;;26.80;78.10;;;;;;5094731;27;20537;-80
2022/08/22 11:40:04;;;;;;;4.68;0.77;;;27.00;77.10;;;;;;5108847;28;20028;-80
2022/08/22 11:42:40;;;;;;;4.05;1.08;;;27.10;75.30;;;;;;5107915;27;20034;-81
2022/08/22 11:45:09;;;;;;;3.03;1.27;;;27.20;78.20;;;;;;5104968;27;20092;-81
2022/08/22 11:47:43;;;;;;;3.70;1.10;;;27.40;75.80;;;;;;5104534;28;20554;-80
2022/08/22 11:50:30;;;;;;;4.20;1.02;;;27.60;75.00;;;;;;5108109;27;20034;-81
2022/08/22 11:53:12;;;;;;;3.95;0.95;;;27.60;74.50;;;;;;5104437;27;20039;-82
2022/08/22 11:55:49;;;;;;;3.17;1.40;;;27.50;72.50;;;;;;5106197;27;20057;-80
2022/08/22 11:58:26;;;;;;;4.47;0.88;;;27.30;73.40;;;;;;5119979;27;20047;-81
2022/08/22 12:00:57;;;;;;;4.72;0.80;;;27.10;73.30;;;;;;5120667;27;20023;-80
2022/08/22 12:03:45;;;;;;;4.07;1.00;;;26.90;73.90;;;;;;5106119;28;20085;-81
2022/08/22 12:06:44;;;;;;;4.05;1.00;;;26.70;74.30;;;;;;5107816;27;20035;-82
2022/08/22 12:09:19;;;;;;;2.15;0.95;;;26.80;75.40;;;;;;5104068;28;20422;-81
2022/08/22 12:12:00;;;;;;;7.70;1.13;;;26.80;75.60;;;;;;5108822;27;20658;-81
2022/08/22 12:14:39;;;;;;;2.67;1.08;;;26.90;73.90;;;;;;5101656;27;20035;-82
2022/08/22 12:17:19;;;;;;;3.30;1.35;;;26.70;74.60;;;;;;5098480;28;20029;-82
2022/08/22 12:20:12;;;;;;;5.05;1.38;;;26.50;74.10;;;;;;5099483;27;20035;-82
2022/08/22 12:23:12;;;;;;;5.45;1.77;;;26.60;75.30;;;;;;5106006;28;20031;-81
2022/08/22 12:26:08;;;;;;;3.22;1.40;;;26.80;77.20;;;;;;5098428;27;20027;-83
2022/08/22 12:29:05;;;;;;;6.35;0.80;;;26.80;75.80;;;;;;5102316;27;20643;-82
2022/08/22 12:32:09;;;;;;;5.05;1.25;;;26.90;76.40;;;;;;5116907;27;20043;-81
2022/08/22 12:34:53;;;;;;;2.05;0.60;;;27.10;74.60;;;;;;5100205;27;20027;-81
2022/08/22 12:37:51;;;;;;;3.72;0.98;;;27.20;73.80;;;;;;5103698;27;20102;-82
2022/08/22 12:40:29;;;;;;;5.40;1.05;;;27.20;73.40;;;;;;5062246;28;20097;-82
2022/08/22 12:43:35;;;;;;;3.58;1.05;;;27.20;74.40;;;;;;5107974;28;20039;-82
2022/08/22 12:46:15;;;;;;;5.97;1.45;;;27.20;75.90;;;;;;5100834;27;20024;-81
2022/08/22 12:48:57;;;;;;;5.63;1.23;;;27.20;72.90;;;;;;5101754;27;20031;-81
2022/08/22 12:51:26;;;;;;;;;;;27.20;73.00;;;;;;5101797;27;20046;-82
2022/08/22 12:54:01;;;;;;;4.68;1.10;;;27.20;71.60;;;;;;5104385;27;19912;-81
2022/08/22 12:57:05;;;;;;;3.35;0.90;;;27.20;72.30;;;;;;5103580;28;20035;-81
2022/08/22 12:59:37;;;;;;;3.97;0.90;;;27.30;74.80;;;;;;5100077;27;20092;-81
2022/08/22 13:02:16;;;;;;;9.02;1.10;;;27.30;73.30;;;;;;5096598;27;20678;-81
2022/08/22 13:05:17;;;;;;;3.03;0.90;;;27.40;74.50;;;;;;5094176;28;20035;-81
2022/08/22 13:07:56;;;;;;;5.35;1.00;;;27.50;72.80;;;;;;5091892;27;20031;-81
2022/08/22 13:10:44;;;;;;;4.35;1.20;;;27.70;74.40;;;;;;5105502;28;20386;-81
2022/08/22 13:13:14;;;;;;;8.48;1.25;;;27.80;74.20;;;;;;5102665;28;20110;-80
2022/08/22 13:15:56;;;;;;;3.60;0.77;;;28.00;73.10;;;;;;5106004;27;20485;-80
2022/08/22 13:18:31;;;;;;;3.45;0.93;;;28.10;75.30;;;;;;5106599;27;20115;-81
2022/08/22 13:21:00;;;;;;;2.78;1.30;;;28.30;73.20;;;;;;5121042;28;20028;-80
2022/08/22 13:23:35;;;;;;;3.25;1.63;;;28.30;71.70;;;;;;5126108;27;20047;-80
2022/08/22 13:26:19;;;;;;;3.95;1.42;;;28.30;69.90;;;;;;5098077;27;20122;-80
2022/08/22 13:28:49;;;;;;;4.28;1.02;;;28.20;69.60;;;;;;5102376;28;20030;-81
2022/08/22 13:31:22;;;;;;;3.28;0.90;;;28.20;70.20;;;;;;5098227;28;20071;-81
2022/08/22 13:33:48;;;;;;;4.50;0.95;;;28.30;69.00;;;;;;5106462;27;20548;-82
2022/08/22 13:36:18;;;;;;;3.75;0.82;;;28.30;69.90;;;;;;5105223;28;20016;-81
2022/08/22 13:39:06;;;;;;;3.17;1.08;;;28.30;67.90;;;;;;5102516;27;20064;-81
2022/08/22 13:41:37;;;;;;;2.60;0.75;;;28.20;69.10;;;;;;5102339;28;20078;-82
2022/08/22 13:44:05;;;;;;;4.65;0.90;;;28.20;69.10;;;;;;5094540;28;20111;-80
2022/08/22 13:46:33;;;;;;;2.88;1.20;;;28.00;66.80;;;;;;5106107;28;20034;-82
2022/08/22 13:49:01;;;;;;;3.38;0.80;;;27.80;66.40;;;;;;5115189;27;20428;-81
2022/08/22 13:51:47;;;;;;;3.85;0.90;;;27.80;65.90;;;;;;5100435;28;20030;-82
2022/08/22 13:54:34;;;;;;;3.17;1.30;;;27.70;68.60;;;;;;5092865;28;20023;-82
2022/08/22 13:57:16;;;;;;;2.60;0.80;;;27.70;69.30;;;;;;5098941;28;20044;-82
2022/08/22 13:59:50;;;;;;;3.80;1.10;;;27.40;68.30;;;;;;5107304;28;20081;-80
2022/08/22 14:02:31;;;;;;;1.75;1.02;;;27.20;68.80;;;;;;5101273;28;20039;-82
2022/08/22 14:05:03;;;;;;;2.60;0.95;;;27.00;69.40;;;;;;5101598;28;20062;-83